Time,TemperatureF,DewpointF,PressureIn,WindDirection,WindDirectionDegrees,WindSpeedMPH,WindSpeedGustMPH,Humidity,HourlyPrecipIn,Conditions,Clouds,dailyrainin,SolarRadiationWatts/m^2,SoftwareType,DateUTC
2013-07-21 00:00:00,54.0,48.0,-100.00,North,0,1.0,-999.0,78,-99.99,,,-99.99,0.000000,,2013-07-21 05:00:00,
2013-07-21 00:32:00,54.0,48.0,-100.00,North,0,1.0,-999.0,78,-99.99,,,-99.99,0.000000,,2013-07-21 05:32:00,
2013-07-21 00:42:00,54.0,48.0,-100.00,North,0,1.0,-999.0,78,-99.99,,,-99.99,0.000000,,2013-07-21 05:42:00,
2013-07-21 00:52:00,54.0,48.0,-100.00,North,0,1.0,-999.0,78,-99.99,,,-99.99,0.000000,,2013-07-21 05:52:00,
2013-07-21 01:00:00,51.0,46.0,-100.00,WNW,292,0.0,-999.0,84,-99.99,,,-99.99,0.000000,,2013-07-21 06:00:00,
2013-07-21 02:00:00,50.0,48.0,-100.00,SSW,202,0.0,-999.0,91,-99.99,,,-99.99,0.000000,,2013-07-21 07:00:00,
2013-07-21 02:43:00,50.0,48.0,-100.00,SSW,202,0.0,-999.0,91,-99.99,,,-99.99,0.000000,,2013-07-21 07:43:00,
2013-07-21 02:53:00,50.0,48.0,-100.00,SSW,202,0.0,-999.0,91,-99.99,,,-99.99,0.000000,,2013-07-21 07:53:00,
2013-07-21 03:00:00,51.0,48.0,-100.00,SSE,157,0.0,-999.0,87,-99.99,,,-99.99,0.000000,,2013-07-21 08:00:00,
2013-07-21 03:43:00,51.0,48.0,-100.00,SSE,157,0.0,-999.0,87,-99.99,,,-99.99,0.000000,,2013-07-21 08:43:00,
2013-07-21 03:52:00,51.0,48.0,-100.00,SSE,157,0.0,-999.0,87,-99.99,,,-99.99,0.000000,,2013-07-21 08:52:00,
2013-07-21 04:00:00,49.0,46.0,-100.00,SSE,157,0.0,-999.0,89,-99.99,,,-99.99,0.000000,,2013-07-21 09:00:00,
2013-07-21 05:00:00,52.0,49.0,-100.00,ENE,67,0.0,-999.0,90,-99.99,,,-99.99,0.000000,,2013-07-21 10:00:00,
2013-07-21 05:32:00,52.0,49.0,-100.00,ENE,67,0.0,-999.0,90,-99.99,,,-99.99,0.000000,,2013-07-21 10:32:00,
2013-07-21 05:43:00,52.0,49.0,-100.00,ENE,67,0.0,-999.0,90,-99.99,,,-99.99,0.000000,,2013-07-21 10:43:00,
2013-07-21 05:52:00,52.0,49.0,-100.00,ENE,67,0.0,-999.0,90,-99.99,,,-99.99,0.000000,,2013-07-21 10:52:00,
2013-07-21 06:00:00,54.0,51.0,-100.00,NE,45,0.0,-999.0,88,-99.99,,,-99.99,10.440000,,2013-07-21 11:00:00,
2013-07-21 06:33:00,54.0,51.0,-100.00,NE,45,0.0,-999.0,88,-99.99,,,-99.99,10.440000,,2013-07-21 11:33:00,
2013-07-21 06:43:00,54.0,51.0,-100.00,NE,45,0.0,-999.0,88,-99.99,,,-99.99,10.440000,,2013-07-21 11:43:00,
2013-07-21 06:52:00,54.0,51.0,-100.00,NE,45,0.0,-999.0,88,-99.99,,,-99.99,10.440000,,2013-07-21 11:52:00,
2013-07-21 07:00:00,56.0,52.0,-100.00,NE,45,0.0,-999.0,89,-99.99,,,-99.99,31.320000,,2013-07-21 12:00:00,
2013-07-21 07:32:00,56.0,52.0,-100.00,NE,45,0.0,-999.0,89,-99.99,,,-99.99,31.320000,,2013-07-21 12:32:00,
2013-07-21 07:43:00,56.0,52.0,-100.00,NE,45,0.0,-999.0,89,-99.99,,,-99.99,31.320000,,2013-07-21 12:43:00,
2013-07-21 07:53:00,56.0,52.0,-100.00,NE,45,0.0,-999.0,89,-99.99,,,-99.99,31.320000,,2013-07-21 12:53:00,
2013-07-21 08:00:00,58.0,55.0,-100.00,ESE,112,0.0,-999.0,90,-99.99,,,-99.99,87.000000,,2013-07-21 13:00:00,
2013-07-21 08:33:00,58.0,55.0,-100.00,ESE,112,0.0,-999.0,90,-99.99,,,-99.99,87.000000,,2013-07-21 13:33:00,
2013-07-21 08:43:00,58.0,55.0,-100.00,ESE,112,0.0,-999.0,90,-99.99,,,-99.99,87.000000,,2013-07-21 13:43:00,
2013-07-21 08:53:00,58.0,55.0,-100.00,ESE,112,0.0,-999.0,90,-99.99,,,-99.99,87.000000,,2013-07-21 13:53:00,
2013-07-21 09:00:00,59.0,57.0,-100.00,SSE,157,1.0,-999.0,90,-99.99,,,-99.99,102.080002,,2013-07-21 14:00:00,
2013-07-21 09:32:00,59.0,57.0,-100.00,SSE,157,1.0,-999.0,90,-99.99,,,-99.99,102.080002,,2013-07-21 14:32:00,
2013-07-21 09:43:00,59.0,57.0,-100.00,SSE,157,1.0,-999.0,90,-99.99,,,-99.99,102.080002,,2013-07-21 14:43:00,
2013-07-21 09:53:00,59.0,57.0,-100.00,SSE,157,1.0,-999.0,90,-99.99,,,-99.99,102.080002,,2013-07-21 14:53:00,
2013-07-21 10:00:00,61.0,56.0,-100.00,SE,135,1.0,-999.0,84,-99.99,,,-99.99,316.679993,,2013-07-21 15:00:00,
2013-07-21 10:43:00,61.0,56.0,-100.00,SE,135,1.0,-999.0,84,-99.99,,,-99.99,316.679993,,2013-07-21 15:43:00,
2013-07-21 10:53:00,61.0,56.0,-100.00,SE,135,1.0,-999.0,84,-99.99,,,-99.99,316.679993,,2013-07-21 15:53:00,
2013-07-21 11:00:00,63.0,56.0,-100.00,East,90,1.0,-999.0,78,-99.99,,,-99.99,329.440002,,2013-07-21 16:00:00,
2013-07-21 11:32:00,63.0,56.0,-100.00,East,90,1.0,-999.0,78,-99.99,,,-99.99,329.440002,,2013-07-21 16:32:00,
2013-07-21 11:43:00,63.0,56.0,-100.00,East,90,1.0,-999.0,78,-99.99,,,-99.99,329.440002,,2013-07-21 16:43:00,
2013-07-21 11:52:00,63.0,56.0,-100.00,East,90,1.0,-999.0,78,-99.99,,,-99.99,329.440002,,2013-07-21 16:52:00,
2013-07-21 12:00:00,63.0,57.0,-100.00,ESE,112,1.0,-999.0,81,-99.99,,,-99.99,243.600006,,2013-07-21 17:00:00,
2013-07-21 12:33:00,63.0,57.0,-100.00,ESE,112,1.0,-999.0,81,-99.99,,,-99.99,243.600006,,2013-07-21 17:33:00,
2013-07-21 12:43:00,63.0,57.0,-100.00,ESE,112,1.0,-999.0,81,-99.99,,,-99.99,243.600006,,2013-07-21 17:43:00,
2013-07-21 12:53:00,63.0,57.0,-100.00,ESE,112,1.0,-999.0,81,-99.99,,,-99.99,243.600006,,2013-07-21 17:53:00,
2013-07-21 13:00:00,64.0,57.0,-100.00,East,90,1.0,-999.0,76,-99.99,,,-99.99,327.119995,,2013-07-21 18:00:00,
2013-07-21 13:43:00,64.0,57.0,-100.00,East,90,1.0,-999.0,76,-99.99,,,-99.99,327.119995,,2013-07-21 18:43:00,
2013-07-21 13:52:00,64.0,57.0,-100.00,East,90,1.0,-999.0,76,-99.99,,,-99.99,327.119995,,2013-07-21 18:52:00,
2013-07-21 14:00:00,65.0,56.0,-100.00,East,90,1.0,-999.0,73,-99.99,,,-99.99,310.880005,,2013-07-21 19:00:00,
2013-07-21 14:32:00,65.0,56.0,-100.00,East,90,1.0,-999.0,73,-99.99,,,-99.99,310.880005,,2013-07-21 19:32:00,
2013-07-21 14:42:00,65.0,56.0,-100.00,East,90,1.0,-999.0,73,-99.99,,,-99.99,310.880005,,2013-07-21 19:42:00,
2013-07-21 14:52:00,65.0,56.0,-100.00,East,90,1.0,-999.0,73,-99.99,,,-99.99,310.880005,,2013-07-21 19:52:00,
2013-07-21 15:00:00,66.0,56.0,-100.00,ENE,67,2.0,-999.0,70,-99.99,,,-99.99,437.320007,,2013-07-21 20:00:00,
2013-07-21 15:32:00,66.0,56.0,-100.00,ENE,67,2.0,-999.0,70,-99.99,,,-99.99,437.320007,,2013-07-21 20:32:00,
2013-07-21 15:43:00,66.0,56.0,-100.00,ENE,67,2.0,-999.0,70,-99.99,,,-99.99,437.320007,,2013-07-21 20:43:00,
2013-07-21 15:52:00,66.0,56.0,-100.00,ENE,67,2.0,-999.0,70,-99.99,,,-99.99,437.320007,,2013-07-21 20:52:00,
2013-07-21 16:00:00,67.0,56.0,-100.00,ENE,67,2.0,-999.0,67,-99.99,,,-99.99,346.839996,,2013-07-21 21:00:00,
2013-07-21 16:43:00,67.0,56.0,-100.00,ENE,67,2.0,-999.0,67,-99.99,,,-99.99,346.839996,,2013-07-21 21:43:00,
2013-07-21 16:52:00,67.0,56.0,-100.00,ENE,67,2.0,-999.0,67,-99.99,,,-99.99,346.839996,,2013-07-21 21:52:00,
2013-07-21 17:00:00,65.0,55.0,-100.00,ENE,67,2.0,-999.0,69,-99.99,,,-99.99,233.160004,,2013-07-21 22:00:00,
2013-07-21 17:43:00,65.0,55.0,-100.00,ENE,67,2.0,-999.0,69,-99.99,,,-99.99,233.160004,,2013-07-21 22:43:00,
2013-07-21 17:52:00,65.0,55.0,-100.00,ENE,67,2.0,-999.0,69,-99.99,,,-99.99,233.160004,,2013-07-21 22:52:00,
2013-07-21 18:00:00,64.0,54.0,-100.00,ENE,67,1.0,-999.0,71,-99.99,,,-99.99,103.239998,,2013-07-21 23:00:00,
2013-07-21 18:32:00,64.0,54.0,-100.00,ENE,67,1.0,-999.0,71,-99.99,,,-99.99,103.239998,,2013-07-21 23:32:00,
2013-07-21 18:43:00,64.0,54.0,-100.00,ENE,67,1.0,-999.0,71,-99.99,,,-99.99,103.239998,,2013-07-21 23:43:00,
2013-07-21 18:53:00,64.0,54.0,-100.00,ENE,67,1.0,-999.0,71,-99.99,,,-99.99,103.239998,,2013-07-21 23:53:00,
2013-07-21 19:00:00,63.0,54.0,-100.00,East,90,1.0,-999.0,72,-99.99,,,-99.99,59.160000,,2013-07-22 00:00:00,
2013-07-21 19:42:00,63.0,54.0,-100.00,East,90,1.0,-999.0,72,-99.99,,,-99.99,59.160000,,2013-07-22 00:42:00,
2013-07-21 19:53:00,63.0,54.0,-100.00,East,90,1.0,-999.0,72,-99.99,,,-99.99,59.160000,,2013-07-22 00:53:00,
2013-07-21 20:00:00,61.0,57.0,-100.00,East,90,1.0,-999.0,88,-99.99,,,-99.99,61.480000,,2013-07-22 01:00:00,
2013-07-21 20:32:00,61.0,57.0,-100.00,East,90,1.0,-999.0,88,-99.99,,,-99.99,61.480000,,2013-07-22 01:32:00,
2013-07-21 20:42:00,61.0,57.0,-100.00,East,90,1.0,-999.0,88,-99.99,,,-99.99,61.480000,,2013-07-22 01:42:00,
2013-07-21 20:52:00,61.0,57.0,-100.00,East,90,1.0,-999.0,88,-99.99,,,-99.99,61.480000,,2013-07-22 01:52:00,
2013-07-21 21:00:00,60.0,57.0,-100.00,SSE,157,0.0,-999.0,90,-99.99,,,-99.99,10.440000,,2013-07-22 02:00:00,
2013-07-21 21:32:00,60.0,57.0,-100.00,SSE,157,0.0,-999.0,90,-99.99,,,-99.99,10.440000,,2013-07-22 02:32:00,
2013-07-21 21:43:00,60.0,57.0,-100.00,SSE,157,0.0,-999.0,90,-99.99,,,-99.99,10.440000,,2013-07-22 02:43:00,
2013-07-21 21:52:00,60.0,57.0,-100.00,SSE,157,0.0,-999.0,90,-99.99,,,-99.99,10.440000,,2013-07-22 02:52:00,
2013-07-21 22:00:00,58.0,55.0,-100.00,SSE,157,0.0,-999.0,92,-99.99,,,-99.99,0.000000,,2013-07-22 03:00:00,
2013-07-21 22:43:00,58.0,55.0,-100.00,SSE,157,0.0,-999.0,92,-99.99,,,-99.99,0.000000,,2013-07-22 03:43:00,
2013-07-21 22:53:00,58.0,55.0,-100.00,SSE,157,0.0,-999.0,92,-99.99,,,-99.99,0.000000,,2013-07-22 03:53:00,
2013-07-21 23:00:00,56.0,54.0,-100.00,SSE,157,0.0,-999.0,94,-99.99,,,-99.99,0.000000,,2013-07-22 04:00:00,
2013-07-21 23:33:00,56.0,54.0,-100.00,SSE,157,0.0,-999.0,94,-99.99,,,-99.99,0.000000,,2013-07-22 04:33:00,
2013-07-21 23:43:00,56.0,54.0,-100.00,SSE,157,0.0,-999.0,94,-99.99,,,-99.99,0.000000,,2013-07-22 04:43:00,